Time;durP1;ratioP1;P1;durP2;ratioP2;P2;SDS_P1;SDS_P2;PMS_P1;PMS_P2;Temp;Humidity;BMP_temperature;BMP_pressure;BME280_temperature;BME280_humidity;BME280_pressure;Samples;Min_cycle;Max_cycle;Signal;HPM_P1;HPM_P2
2024/03/23 00:02:03;;;;;;;14.13;7.83;;;6.80;1.00;;;;;;5079002;28;20465;-63
2024/03/23 00:04:33;;;;;;;17.77;7.30;;;6.90;99.90;;;;;;5078899;28;20482;-63
2024/03/23 00:07:04;;;;;;;16.80;7.87;;;6.90;99.90;;;;;;5078978;28;20548;-61
2024/03/23 00:09:34;;;;;;;16.13;6.97;;;6.90;99.90;;;;;;5078248;28;20489;-63
2024/03/23 00:12:05;;;;;;;16.33;7.47;;;6.80;99.90;;;;;;5077545;28;20492;-62
2024/03/23 00:14:37;;;;;;;18.07;8.40;;;6.90;99.90;;;;;;5077624;28;20458;-64
2024/03/23 00:17:08;;;;;;;14.83;8.27;;;6.90;99.90;;;;;;5078209;28;20779;-64
2024/03/23 00:19:38;;;;;;;14.63;8.07;;;6.80;1.00;;;;;;5079114;28;20462;-65
2024/03/23 00:22:09;;;;;;;16.43;8.20;;;6.80;1.00;;;;;;5078872;28;20461;-64
2024/03/23 00:24:40;;;;;;;17.10;8.83;;;6.80;1.00;;;;;;5078466;28;20486;-64
2024/03/23 00:27:11;;;;;;;15.73;7.37;;;6.80;1.00;;;;;;5079189;28;20803;-64
2024/03/23 00:29:41;;;;;;;15.40;9.23;;;6.80;1.00;;;;;;5078831;28;20462;-64
2024/03/23 00:32:12;;;;;;;13.60;7.07;;;6.80;1.00;;;;;;5079044;28;20468;-64
2024/03/23 00:34:42;;;;;;;15.50;7.53;;;6.70;1.00;;;;;;5078809;28;20886;-65
2024/03/23 00:37:13;;;;;;;12.20;7.80;;;6.60;1.00;;;;;;5078920;28;20481;-66
2024/03/23 00:39:43;;;;;;;12.40;7.47;;;6.60;1.00;;;;;;5078327;28;20481;-65
2024/03/23 00:42:14;;;;;;;16.17;8.60;;;6.60;1.00;;;;;;5077091;28;20450;-66
2024/03/23 00:44:44;;;;;;;12.00;7.10;;;6.60;1.00;;;;;;5077015;28;20457;-66
2024/03/23 00:47:15;;;;;;;12.63;7.17;;;6.60;1.00;;;;;;5078709;28;20454;-66
2024/03/23 00:49:45;;;;;;;19.93;8.87;;;6.60;50.50;;;;;;5078714;28;20916;-65
2024/03/23 00:52:16;;;;;;;13.87;7.93;;;6.70;99.90;;;;;;5078634;28;20436;-66
2024/03/23 00:54:42;;;;;;;24.93;7.80;;;6.60;36.50;;;;;;5078485;28;20454;-65
2024/03/23 00:57:09;;;;;;;11.70;7.80;;;6.50;99.90;;;;;;5098469;28;20777;-65
2024/03/23 00:59:36;;;;;;;13.23;7.87;;;6.50;93.40;;;;;;5098345;28;20475;-66
2024/03/23 01:02:03;;;;;;;14.80;8.57;;;6.40;99.90;;;;;;5097276;28;20536;-66
2024/03/23 01:04:29;;;;;;;11.50;7.37;;;6.50;99.90;;;;;;5096021;28;20456;-65
2024/03/23 01:06:56;;;;;;;16.93;8.10;;;6.40;99.90;;;;;;5096801;28;20495;-65
2024/03/23 01:09:24;;;;;;;14.00;7.30;;;6.30;99.90;;;;;;5096026;28;20480;-66
2024/03/23 01:11:51;;;;;;;17.80;7.87;;;6.20;99.90;;;;;;5097344;28;20495;-65
2024/03/23 01:14:17;;;;;;;11.67;6.57;;;6.20;99.90;;;;;;5098060;28;20460;-65
2024/03/23 01:16:45;;;;;;;13.80;6.40;;;6.10;99.90;;;;;;5097878;28;20463;-65
2024/03/23 01:19:11;;;;;;;10.60;5.87;;;6.20;99.90;;;;;;5098066;28;20491;-66
2024/03/23 01:21:38;;;;;;;19.43;7.70;;;6.10;99.90;;;;;;5098145;28;20471;-65
2024/03/23 01:24:05;;;;;;;11.77;5.43;;;6.10;99.90;;;;;;5097839;28;20467;-64
2024/03/23 01:26:34;;;;;;;14.80;5.20;;;6.00;1.00;;;;;;5098178;28;20543;-65
2024/03/23 01:29:00;;;;;;;9.23;5.30;;;6.00;1.00;;;;;;5098023;28;20485;-65
2024/03/23 01:31:27;;;;;;;9.30;5.10;;;5.90;1.00;;;;;;5097981;28;20460;-66
2024/03/23 01:33:53;;;;;;;9.23;4.70;;;5.90;1.00;;;;;;5097064;28;20474;-65
2024/03/23 01:36:21;;;;;;;15.87;6.10;;;5.90;1.00;;;;;;5097473;28;20487;-65
2024/03/23 01:38:47;;;;;;;14.67;6.17;;;5.90;1.00;;;;;;5097925;28;20466;-66
2024/03/23 01:41:14;;;;;;;12.37;5.27;;;5.80;1.00;;;;;;5097675;28;20513;-66
2024/03/23 01:43:42;;;;;;;11.00;5.90;;;5.80;99.90;;;;;;5097600;28;20786;-66
2024/03/23 01:46:09;;;;;;;14.57;5.97;;;5.80;1.00;;;;;;5096885;28;20479;-66
2024/03/23 01:48:35;;;;;;;15.37;6.90;;;5.80;99.90;;;;;;5095920;28;20563;-65
2024/03/23 01:51:03;;;;;;;12.17;5.40;;;5.80;1.00;;;;;;5095058;28;20478;-66
2024/03/23 01:53:30;;;;;;;10.97;5.60;;;5.80;1.00;;;;;;5095868;28;20434;-66
2024/03/23 01:55:58;;;;;;;13.50;5.87;;;5.80;1.00;;;;;;5097568;28;20908;-66
2024/03/23 01:58:24;;;;;;;11.60;5.70;;;5.70;99.90;;;;;;5097684;28;20492;-66
2024/03/23 02:00:52;;;;;;;13.17;5.10;;;5.70;99.90;;;;;;5097036;28;20467;-66
2024/03/23 02:03:28;;;;;;;11.53;5.60;;;5.50;70.60;;;;;;5097538;28;20462;-66
2024/03/23 02:05:57;;;;;;;9.83;5.33;;;5.60;73.90;;;;;;5097419;28;20460;-66
2024/03/23 02:08:24;;;;;;;8.77;4.57;;;5.40;99.90;;;;;;5097187;28;20456;-65
2024/03/23 02:10:52;;;;;;;9.27;4.57;;;5.30;93.50;;;;;;5096573;28;20491;-67
2024/03/23 02:13:21;;;;;;;12.10;4.77;;;5.30;60.00;;;;;;5097232;28;20768;-67
2024/03/23 02:15:48;;;;;;;8.50;3.80;;;5.40;99.90;;;;;;5096659;28;20460;-66
2024/03/23 02:18:16;;;;;;;14.37;5.40;;;5.30;99.90;;;;;;5097031;28;20472;-67
2024/03/23 02:20:43;;;;;;;9.73;4.90;;;5.20;1.00;;;;;;5097059;28;20467;-66
2024/03/23 02:23:15;;;;;;;13.83;4.80;;;5.20;86.00;;;;;;5097101;28;20530;-66
2024/03/23 02:25:42;;;;;;;11.60;4.93;;;5.30;99.90;;;;;;5097025;28;20554;-67
2024/03/23 02:28:10;;;;;;;10.23;6.13;;;5.20;66.50;;;;;;5097585;28;20449;-67
2024/03/23 02:30:36;;;;;;;15.60;5.60;;;5.20;99.90;;;;;;5101129;28;20551;-66
2024/03/23 02:33:04;;;;;;;7.97;4.53;;;5.30;99.90;;;;;;5101343;28;20456;-67
2024/03/23 02:35:30;;;;;;;12.17;4.57;;;5.30;99.90;;;;;;5101037;28;20770;-67
2024/03/23 02:37:57;;;;;;;7.50;4.70;;;5.30;99.90;;;;;;5100870;28;20520;-67
2024/03/23 02:40:25;;;;;;;10.70;5.90;;;5.40;99.90;;;;;;5100810;28;20844;-68
2024/03/23 02:42:52;;;;;;;8.63;4.20;;;5.40;99.90;;;;;;5101081;28;20875;-69
2024/03/23 02:45:18;;;;;;;7.50;4.37;;;5.40;99.90;;;;;;5100774;28;20815;-68
2024/03/23 02:47:46;;;;;;;13.63;4.70;;;5.40;99.90;;;;;;5101033;28;20471;-68
2024/03/23 02:50:12;;;;;;;9.93;4.40;;;5.40;99.90;;;;;;5100712;28;20942;-68
2024/03/23 02:52:39;;;;;;;6.77;3.63;;;5.40;99.90;;;;;;5100906;28;20555;-68
2024/03/23 02:55:06;;;;;;;10.30;5.23;;;5.40;99.90;;;;;;5100850;28;20456;-67
2024/03/23 02:57:34;;;;;;;7.27;4.17;;;5.50;99.90;;;;;;5100982;28;20488;-67
2024/03/23 03:00:00;;;;;;;12.10;4.43;;;5.50;99.90;;;;;;5100626;28;20456;-67
2024/03/23 03:02:28;;;;;;;11.40;3.97;;;5.70;99.90;;;;;;5100966;28;20747;-67
2024/03/23 03:04:54;;;;;;;10.63;4.50;;;5.70;99.90;;;;;;5100898;28;20521;-67
2024/03/23 03:07:21;;;;;;;10.27;4.30;;;5.70;99.90;;;;;;5100144;28;20463;-66
2024/03/23 03:09:47;;;;;;;12.87;4.70;;;5.70;99.90;;;;;;5099865;28;20561;-67
2024/03/23 03:12:14;;;;;;;13.30;4.20;;;5.70;99.90;;;;;;5100682;28;20959;-66
2024/03/23 03:14:42;;;;;;;9.27;5.13;;;5.60;1.00;;;;;;5100757;28;20457;-66
2024/03/23 03:17:09;;;;;;;9.93;3.80;;;5.50;1.00;;;;;;5100522;28;20484;-66
2024/03/23 03:19:35;;;;;;;8.00;3.33;;;5.40;99.90;;;;;;5099462;28;20483;-66
2024/03/23 03:22:04;;;;;;;10.60;3.50;;;5.40;99.90;;;;;;5100297;28;20456;-66
2024/03/23 03:24:30;;;;;;;10.43;3.30;;;5.50;99.90;;;;;;5100543;28;20460;-66
2024/03/23 03:26:58;;;;;;;9.97;3.30;;;5.30;1.00;;;;;;5099585;28;20430;-67
2024/03/23 03:29:24;;;;;;;11.17;3.70;;;5.20;51.30;;;;;;5100031;28;20563;-68
2024/03/23 03:31:53;;;;;;;7.00;3.40;;;5.20;99.90;;;;;;5099742;28;20461;-68
2024/03/23 03:34:19;;;;;;;8.60;3.33;;;5.10;71.00;;;;;;5098405;28;20492;-67
2024/03/23 03:36:46;;;;;;;11.97;3.20;;;5.10;1.00;;;;;;5098691;28;20929;-66
2024/03/23 03:39:12;;;;;;;9.00;3.57;;;5.20;1.00;;;;;;5099526;28;20551;-66
2024/03/23 03:41:39;;;;;;;12.50;4.70;;;5.20;99.90;;;;;;5099048;28;20470;-67
2024/03/23 03:44:06;;;;;;;7.97;3.40;;;5.20;99.90;;;;;;5099706;28;20438;-66
2024/03/23 03:46:33;;;;;;;10.83;3.10;;;5.20;99.90;;;;;;5100475;28;20461;-67
2024/03/23 03:49:01;;;;;;;9.40;3.40;;;5.20;99.90;;;;;;5100009;28;20567;-67
2024/03/23 03:51:28;;;;;;;6.40;3.07;;;5.30;99.90;;;;;;5099568;28;20472;-67
2024/03/23 03:53:54;;;;;;;8.27;3.23;;;5.30;1.00;;;;;;5099508;28;20496;-67
2024/03/23 03:56:22;;;;;;;7.03;4.00;;;5.30;99.90;;;;;;5099543;28;20456;-67
2024/03/23 03:58:48;;;;;;;10.93;3.57;;;5.40;1.00;;;;;;5099633;28;20800;-67
2024/03/23 04:01:15;;;;;;;10.60;3.87;;;5.40;1.00;;;;;;5099249;28;20497;-67
2024/03/23 04:03:43;;;;;;;9.23;3.40;;;5.40;99.90;;;;;;5099367;28;20491;-68
2024/03/23 04:06:12;;;;;;;11.47;3.43;;;5.40;99.90;;;;;;5099742;28;20452;-67
2024/03/23 04:08:38;;;;;;;10.70;3.90;;;5.50;99.90;;;;;;5098963;28;20546;-67
2024/03/23 04:11:05;;;;;;;15.03;4.40;;;5.60;99.90;;;;;;5097376;28;20808;-67
2024/03/23 04:13:32;;;;;;;16.17;4.30;;;5.50;99.90;;;;;;5097477;28;20511;-67
2024/03/23 04:15:59;;;;;;;9.20;3.43;;;5.50;99.90;;;;;;5097633;28;20455;-67
2024/03/23 04:18:25;;;;;;;6.17;3.80;;;5.50;99.90;;;;;;5097572;28;20984;-67
2024/03/23 04:20:53;;;;;;;14.20;4.17;;;5.30;99.90;;;;;;5097802;28;20782;-67
2024/03/23 04:23:21;;;;;;;8.13;3.20;;;5.40;99.90;;;;;;5097521;28;20467;-68
2024/03/23 04:25:48;;;;;;;11.50;4.23;;;5.40;99.90;;;;;;5097517;28;20484;-68
2024/03/23 04:28:14;;;;;;;9.70;3.60;;;5.50;99.90;;;;;;5097381;28;20798;-69
2024/03/23 04:30:41;;;;;;;9.90;4.03;;;5.50;99.90;;;;;;5097719;28;20459;-68
2024/03/23 04:33:08;;;;;;;13.43;3.77;;;5.50;99.90;;;;;;5098089;28;20460;-68
2024/03/23 04:35:35;;;;;;;10.83;3.70;;;5.40;99.90;;;;;;5098801;28;20460;-68
2024/03/23 04:38:02;;;;;;;12.10;3.57;;;5.40;99.90;;;;;;5098575;28;20509;-68
2024/03/23 04:40:31;;;;;;;10.37;4.00;;;5.40;99.90;;;;;;5098904;28;20784;-68
2024/03/23 04:42:58;;;;;;;9.10;4.07;;;5.40;1.00;;;;;;5099029;28;20462;-67
2024/03/23 04:45:25;;;;;;;8.33;4.13;;;5.30;99.90;;;;;;5098179;28;20534;-67
2024/03/23 04:47:53;;;;;;;9.33;4.87;;;5.30;1.00;;;;;;5098386;28;20548;-69
2024/03/23 04:50:20;;;;;;;14.10;5.10;;;5.30;1.00;;;;;;5098605;28;20566;-67
2024/03/23 04:52:47;;;;;;;14.10;5.20;;;5.30;1.00;;;;;;5098446;28;20469;-67
2024/03/23 04:55:14;;;;;;;12.83;5.07;;;5.30;1.00;;;;;;5097882;28;20437;-67
2024/03/23 04:57:43;;;;;;;12.07;4.50;;;5.30;1.00;;;;;;5097897;28;20527;-68
2024/03/23 05:00:16;;;;;;;12.53;4.40;;;5.40;1.00;;;;;;5098537;28;20492;-68
2024/03/23 05:02:47;;;;;;;10.00;5.20;;;5.40;1.00;;;;;;5098557;28;20500;-68
2024/03/23 05:05:13;;;;;;;12.57;5.50;;;5.20;1.00;;;;;;5098021;28;20554;-68
2024/03/23 05:07:41;;;;;;;9.70;5.03;;;5.30;1.00;;;;;;5096995;28;20456;-69
2024/03/23 05:10:10;;;;;;;9.10;4.93;;;5.20;4.50;;;;;;5096191;28;20778;-69
2024/03/23 05:12:38;;;;;;;12.80;5.70;;;5.40;34.10;;;;;;5096845;28;20465;-70
2024/03/23 05:15:07;;;;;;;11.13;5.50;;;5.40;13.10;;;;;;5096068;28;20495;-69
2024/03/23 05:17:35;;;;;;;14.87;5.67;;;5.30;99.90;;;;;;5096205;28;20506;-70
2024/03/23 05:20:02;;;;;;;11.13;4.80;;;5.40;98.80;;;;;;5096281;28;20464;-69
2024/03/23 05:22:30;;;;;;;10.53;5.07;;;5.30;1.00;;;;;;5096243;28;20463;-70
2024/03/23 05:24:57;;;;;;;14.20;4.70;;;5.30;1.00;;;;;;5096564;28;20435;-70
2024/03/23 05:27:24;;;;;;;10.17;4.80;;;5.30;1.00;;;;;;5096380;28;20464;-69
2024/03/23 05:29:50;;;;;;;12.00;5.40;;;5.20;1.00;;;;;;5096453;28;20496;-70
2024/03/23 05:32:18;;;;;;;11.50;6.00;;;5.20;1.00;;;;;;5096359;28;20510;-70
2024/03/23 05:34:45;;;;;;;11.80;5.93;;;5.30;24.90;;;;;;5096200;28;20947;-70
2024/03/23 05:37:12;;;;;;;12.13;5.93;;;5.20;99.90;;;;;;5097795;28;20571;-71
2024/03/23 05:39:38;;;;;;;14.53;6.90;;;5.30;99.90;;;;;;5097678;28;20464;-69
2024/03/23 05:42:06;;;;;;;17.60;6.90;;;5.30;99.90;;;;;;5098957;28;20442;-70
2024/03/23 05:44:32;;;;;;;13.80;6.60;;;5.30;99.90;;;;;;5097101;28;20460;-70
2024/03/23 05:46:59;;;;;;;13.30;7.40;;;5.30;99.90;;;;;;5097498;28;20452;-69
2024/03/23 05:49:27;;;;;;;14.83;9.37;;;5.30;99.90;;;;;;5097767;28;20821;-69
2024/03/23 05:51:55;;;;;;;15.83;8.90;;;5.30;99.90;;;;;;5097638;28;20553;-67
2024/03/23 05:54:21;;;;;;;16.97;8.40;;;5.30;99.90;;;;;;5097224;28;20468;-67
2024/03/23 05:56:48;;;;;;;14.67;7.83;;;5.30;99.90;;;;;;5097508;28;20720;-67
2024/03/23 05:59:14;;;;;;;16.07;8.60;;;5.20;1.00;;;;;;5096505;28;20452;-67
2024/03/23 06:01:41;;;;;;;15.03;8.77;;;5.30;99.90;;;;;;5095422;28;20460;-66
2024/03/23 06:04:08;;;;;;;17.13;8.70;;;5.20;99.90;;;;;;5095398;28;20798;-66
2024/03/23 06:06:36;;;;;;;18.73;10.20;;;5.30;99.90;;;;;;5095752;28;20449;-67
2024/03/23 06:09:04;;;;;;;14.47;8.80;;;5.30;1.00;;;;;;5095367;28;20467;-67
2024/03/23 06:11:30;;;;;;;14.77;8.67;;;5.30;1.00;;;;;;5095697;28;20460;-66
2024/03/23 06:13:58;;;;;;;16.40;8.83;;;5.40;1.00;;;;;;5097337;28;20446;-64
2024/03/23 06:16:24;;;;;;;13.10;8.80;;;5.40;1.00;;;;;;5096704;28;20457;-65
2024/03/23 06:18:51;;;;;;;14.10;8.10;;;5.30;99.90;;;;;;5097044;28;20622;-65
2024/03/23 06:21:18;;;;;;;13.30;8.40;;;5.10;99.90;;;;;;5096170;28;20461;-65
2024/03/23 06:23:50;;;;;;;13.83;8.43;;;5.10;99.90;;;;;;5096141;28;20464;-66
2024/03/23 06:26:17;;;;;;;13.57;8.47;;;5.10;1.00;;;;;;5097204;28;20435;-66
2024/03/23 06:28:44;;;;;;;14.00;7.83;;;5.20;1.00;;;;;;5097434;28;20506;-66
2024/03/23 06:31:11;;;;;;;11.63;7.80;;;5.10;99.90;;;;;;5096607;28;20479;-65
2024/03/23 06:33:38;;;;;;;15.20;8.07;;;5.20;1.00;;;;;;5096415;28;20458;-65
2024/03/23 06:36:05;;;;;;;12.67;8.73;;;5.30;99.90;;;;;;5095064;28;20827;-65
2024/03/23 06:38:32;;;;;;;15.07;8.57;;;5.20;99.90;;;;;;5095079;28;20484;-66
2024/03/23 06:41:02;;;;;;;9.90;7.13;;;5.20;99.90;;;;;;5094625;28;20458;-67
2024/03/23 06:43:29;;;;;;;10.53;7.53;;;5.20;99.90;;;;;;5094562;28;20581;-66
2024/03/23 06:45:56;;;;;;;12.90;7.70;;;5.20;99.90;;;;;;5094123;28;20471;-67
2024/03/23 06:48:24;;;;;;;19.17;9.43;;;5.30;1.00;;;;;;5095088;28;20457;-67
2024/03/23 06:50:55;;;;;;;15.87;9.47;;;5.30;1.00;;;;;;5095857;28;20492;-66
2024/03/23 06:53:22;;;;;;;19.33;9.63;;;5.40;1.00;;;;;;5096274;28;20802;-66
2024/03/23 06:55:51;;;;;;;19.50;10.27;;;5.50;1.00;;;;;;5097022;28;20738;-66
2024/03/23 06:58:20;;;;;;;21.43;10.30;;;5.50;1.00;;;;;;5088972;28;20485;-66
2024/03/23 07:00:47;;;;;;;20.10;11.47;;;5.40;1.00;;;;;;5077097;28;20456;-65
2024/03/23 07:03:14;;;;;;;21.30;11.03;;;5.50;1.00;;;;;;5075777;28;20468;-66
2024/03/23 07:05:41;;;;;;;17.83;10.53;;;5.60;1.00;;;;;;5076334;28;20504;-66
2024/03/23 07:08:09;;;;;;;20.10;12.17;;;5.60;1.00;;;;;;5076473;28;20467;-67
2024/03/23 07:10:35;;;;;;;24.40;14.77;;;5.70;99.90;;;;;;5076123;28;20484;-67
2024/03/23 07:13:02;;;;;;;22.93;12.20;;;5.60;99.90;;;;;;5076887;28;20437;-66
2024/03/23 07:15:30;;;;;;;30.87;20.00;;;5.70;99.90;;;;;;5078855;28;20462;-68
2024/03/23 07:17:57;;;;;;;28.23;12.33;;;5.70;99.90;;;;;;5080213;28;20506;-67
2024/03/23 07:20:24;;;;;;;19.07;13.03;;;5.80;99.90;;;;;;5080433;28;20491;-68
2024/03/23 07:22:51;;;;;;;22.77;11.17;;;5.80;99.90;;;;;;5080080;28;20530;-67
2024/03/23 07:25:17;;;;;;;16.03;11.60;;;5.90;1.00;;;;;;5079878;28;20559;-67
2024/03/23 07:27:45;;;;;;;19.83;11.30;;;6.00;1.00;;;;;;5079822;28;20468;-68
2024/03/23 07:30:11;;;;;;;24.30;11.10;;;6.20;1.00;;;;;;5079756;28;20458;-67
2024/03/23 07:32:45;;;;;;;26.23;10.90;;;6.20;1.00;;;;;;5079655;28;20465;-67
2024/03/23 07:35:11;;;;;;;17.50;10.60;;;6.10;99.90;;;;;;5080431;28;20804;-68
2024/03/23 07:37:38;;;;;;;19.47;11.40;;;6.70;96.40;;;;;;5079922;28;20947;-66
2024/03/23 07:40:06;;;;;;;18.23;9.67;;;7.00;1.00;;;;;;5080082;28;20488;-66
2024/03/23 07:42:33;;;;;;;24.63;11.00;;;7.00;99.90;;;;;;5078756;28;20461;-66
2024/03/23 07:45:00;;;;;;;16.07;10.70;;;6.90;99.90;;;;;;5079281;28;20468;-64
2024/03/23 07:47:27;;;;;;;20.57;9.87;;;7.00;99.90;;;;;;5079387;28;20453;-64
2024/03/23 07:49:55;;;;;;;21.83;10.77;;;7.00;1.00;;;;;;5098823;28;20464;-65
2024/03/23 07:52:22;;;;;;;18.70;9.37;;;7.10;1.00;;;;;;5098402;28;20488;-64
2024/03/23 07:54:49;;;;;;;17.83;11.43;;;7.30;50.40;;;;;;5097044;28;20979;-64
2024/03/23 07:57:16;;;;;;;17.97;10.03;;;7.20;1.00;;;;;;5098331;28;20459;-63
2024/03/23 07:59:42;;;;;;;13.60;10.20;;;7.20;1.00;;;;;;5098830;28;20488;-63
2024/03/23 08:02:10;;;;;;;19.63;10.73;;;7.50;90.70;;;;;;5099406;28;20438;-63
2024/03/23 08:04:37;;;;;;;16.60;10.47;;;7.50;1.00;;;;;;5099547;28;20862;-63
2024/03/23 08:07:06;;;;;;;17.60;9.43;;;7.60;1.00;;;;;;5099792;28;20530;-63
2024/03/23 08:09:32;;;;;;;16.77;9.23;;;7.50;99.90;;;;;;5098318;28;20983;-64
2024/03/23 08:12:00;;;;;;;16.40;8.23;;;7.20;99.90;;;;;;5098129;28;20453;-63
2024/03/23 08:14:26;;;;;;;16.70;10.40;;;7.30;1.00;;;;;;5097811;28;20464;-64
2024/03/23 08:16:56;;;;;;;22.13;11.07;;;7.40;1.00;;;;;;5097827;28;20892;-63
2024/03/23 08:19:22;;;;;;;18.83;10.40;;;7.40;1.00;;;;;;5097418;28;20532;-63
2024/03/23 08:21:51;;;;;;;13.70;9.33;;;7.40;1.00;;;;;;5097615;28;20905;-64
2024/03/23 08:24:19;;;;;;;14.63;8.80;;;7.40;1.00;;;;;;5098109;28;20940;-63
2024/03/23 08:26:47;;;;;;;13.33;9.63;;;7.60;99.90;;;;;;5098518;28;20890;-63
2024/03/23 08:29:13;;;;;;;18.40;9.50;;;8.00;1.00;;;;;;5087525;28;20761;-63
2024/03/23 08:31:40;;;;;;;15.70;8.20;;;8.30;99.90;;;;;;5061756;28;20905;-63
2024/03/23 08:34:07;;;;;;;17.30;7.83;;;8.70;99.90;;;;;;5072445;28;20897;-63
2024/03/23 08:36:34;;;;;;;18.70;7.43;;;8.50;1.00;;;;;;5077176;28;20457;-63
2024/03/23 08:39:01;;;;;;;17.47;6.60;;;8.40;1.00;;;;;;5077191;28;20489;-62
2024/03/23 08:41:30;;;;;;;11.77;6.70;;;8.30;1.00;;;;;;5078082;28;20457;-63
2024/03/23 08:43:56;;;;;;;11.10;6.60;;;7.90;1.00;;;;;;5077629;28;20946;-62
2024/03/23 08:46:23;;;;;;;11.10;7.23;;;8.10;39.40;;;;;;5078679;28;20556;-62
2024/03/23 08:48:52;;;;;;;16.00;6.07;;;8.20;43.40;;;;;;5078556;28;20750;-62
2024/03/23 08:51:19;;;;;;;14.80;6.50;;;8.40;1.00;;;;;;5058680;28;20488;-63
2024/03/23 08:53:45;;;;;;;12.93;6.30;;;8.80;1.00;;;;;;5056765;28;20458;-61
2024/03/23 08:56:13;;;;;;;18.00;5.70;;;8.70;99.90;;;;;;5056941;28;20462;-61
2024/03/23 08:58:41;;;;;;;15.80;6.87;;;8.60;1.00;;;;;;5056604;28;20581;-61
2024/03/23 09:01:10;;;;;;;11.93;6.00;;;8.70;1.00;;;;;;5073952;28;20519;-61
2024/03/23 09:03:37;;;;;;;12.70;6.03;;;8.50;1.00;;;;;;5070800;28;20758;-61
2024/03/23 09:06:08;;;;;;;12.93;6.00;;;8.60;1.00;;;;;;5057449;28;20596;-61
2024/03/23 09:08:36;;;;;;;10.17;5.47;;;8.70;1.00;;;;;;5059092;28;20891;-60
2024/03/23 09:11:07;;;;;;;14.67;6.70;;;8.50;99.90;;;;;;5068106;28;20516;-60
2024/03/23 09:13:33;;;;;;;15.90;6.67;;;8.30;99.90;;;;;;5074679;28;20474;-61
2024/03/23 09:16:03;;;;;;;14.03;5.20;;;8.20;99.90;;;;;;5078247;28;20457;-61
2024/03/23 09:18:31;;;;;;;5.00;2.70;;;7.80;99.90;;;;;;5075244;28;20500;-62
2024/03/23 09:20:59;;;;;;;3.50;2.17;;;6.80;99.90;;;;;;5071396;28;20461;-63
2024/03/23 09:23:25;;;;;;;3.40;2.60;;;5.40;1.00;;;;;;5076781;28;20739;-63
2024/03/23 09:25:53;;;;;;;4.93;2.10;;;4.90;27.30;;;;;;5077028;28;20492;-62
2024/03/23 09:28:19;;;;;;;3.90;2.50;;;4.60;99.90;;;;;;5077063;28;20771;-63
2024/03/23 09:30:47;;;;;;;4.13;2.00;;;4.20;99.90;;;;;;5077438;28;20498;-64
2024/03/23 09:33:14;;;;;;;4.83;2.07;;;4.20;99.90;;;;;;5077426;28;20957;-64
2024/03/23 09:35:42;;;;;;;4.23;2.40;;;4.20;99.90;;;;;;5077426;28;20883;-64
2024/03/23 09:38:09;;;;;;;4.00;2.30;;;4.30;99.90;;;;;;5075829;28;20802;-64
2024/03/23 09:40:41;;;;;;;3.07;2.00;;;4.50;99.90;;;;;;5076460;28;20750;-64
2024/03/23 09:43:08;;;;;;;10.00;3.10;;;4.60;99.90;;;;;;5075736;28;20475;-63
2024/03/23 09:45:39;;;;;;;7.60;3.57;;;4.90;99.90;;;;;;5076183;28;20461;-65
2024/03/23 09:48:08;;;;;;;5.00;3.10;;;5.10;99.90;;;;;;5075505;28;20453;-65
2024/03/23 09:50:38;;;;;;;6.53;4.20;;;5.60;99.90;;;;;;5076721;28;20465;-66
2024/03/23 09:53:06;;;;;;;8.10;3.90;;;5.80;99.90;;;;;;5077371;28;20954;-65
2024/03/23 09:55:36;;;;;;;8.40;3.50;;;6.10;99.90;;;;;;5077355;28;20512;-66
2024/03/23 09:58:04;;;;;;;5.53;3.30;;;7.00;1.00;;;;;;5077344;28;20576;-66
2024/03/23 10:00:32;;;;;;;4.60;3.13;;;7.90;1.00;;;;;;5077315;28;20461;-67
2024/03/23 10:03:01;;;;;;;6.97;3.53;;;8.40;99.90;;;;;;5077536;28;20462;-66
2024/03/23 10:05:31;;;;;;;6.80;3.50;;;9.00;99.90;;;;;;5076872;28;20465;-65
2024/03/23 10:07:59;;;;;;;5.50;3.63;;;9.50;41.50;;;;;;5077059;28;20468;-65
2024/03/23 10:10:27;;;;;;;4.80;3.30;;;9.90;3.20;;;;;;5076848;28;20916;-65
2024/03/23 10:12:53;;;;;;;5.50;3.63;;;9.60;1.00;;;;;;5077459;28;20758;-64
2024/03/23 10:15:23;;;;;;;6.07;3.70;;;9.90;1.00;;;;;;5075980;28;20461;-63
2024/03/23 10:17:49;;;;;;;8.23;3.57;;;10.00;1.00;;;;;;5076465;28;20464;-64
2024/03/23 10:20:22;;;;;;;6.47;4.40;;;9.90;99.90;;;;;;5077375;28;20564;-64
2024/03/23 10:22:49;;;;;;;10.40;4.83;;;9.90;99.90;;;;;;5077790;28;20737;-62
2024/03/23 10:25:19;;;;;;;13.33;5.37;;;10.10;99.90;;;;;;5077073;28;20909;-62
2024/03/23 10:27:59;;;;;;;8.53;4.43;;;10.00;99.90;;;;;;5077185;28;20515;-62
2024/03/23 10:30:28;;;;;;;8.13;4.20;;;9.80;99.90;;;;;;5077897;28;20544;-61
2024/03/23 10:33:07;;;;;;;9.10;4.97;;;9.30;99.90;;;;;;5077097;28;20467;-61
2024/03/23 10:35:35;;;;;;;11.90;4.20;;;8.90;99.90;;;;;;5075501;28;20457;-62
2024/03/23 10:38:04;;;;;;;9.20;4.33;;;8.90;95.20;;;;;;5076725;28;20489;-61
2024/03/23 10:40:36;;;;;;;9.20;4.33;;;9.40;82.10;;;;;;5077470;28;20879;-61
2024/03/23 10:43:04;;;;;;;8.20;5.10;;;9.90;9.60;;;;;;5077225;28;20465;-62
2024/03/23 10:45:31;;;;;;;9.77;4.27;;;10.40;1.00;;;;;;5077092;28;20453;-63
2024/03/23 10:47:58;;;;;;;7.67;3.60;;;10.70;1.00;;;;;;5075725;28;20511;-62
2024/03/23 10:50:26;;;;;;;5.23;3.80;;;10.80;1.00;;;;;;5079230;28;20465;-62
2024/03/23 10:52:55;;;;;;;5.70;3.43;;;11.00;1.00;;;;;;5080575;28;20464;-62
2024/03/23 10:55:25;;;;;;;11.47;4.83;;;10.20;1.00;;;;;;5081516;28;20465;-62
2024/03/23 10:57:55;;;;;;;5.03;3.43;;;9.40;1.00;;;;;;5081898;28;20764;-61
2024/03/23 11:00:23;;;;;;;8.47;3.47;;;9.30;1.00;;;;;;5081489;28;20755;-64
2024/03/23 11:02:50;;;;;;;9.00;3.43;;;8.90;1.00;;;;;;5081537;28;20468;-64
2024/03/23 11:05:34;;;;;;;4.53;2.50;;;8.40;1.00;;;;;;5080725;28;20484;-66
2024/03/23 11:08:00;;;;;;;4.83;2.60;;;7.70;1.00;;;;;;5080138;28;20501;-65
2024/03/23 11:10:30;;;;;;;7.20;2.80;;;7.20;57.10;;;;;;5080337;28;20575;-65
2024/03/23 11:12:58;;;;;;;2.90;2.40;;;6.70;99.90;;;;;;5080770;28;20819;-67
2024/03/23 11:15:25;;;;;;;4.53;2.70;;;6.30;99.90;;;;;;5080672;28;20832;-63
2024/03/23 11:18:07;;;;;;;4.83;3.17;;;6.00;1.00;;;;;;5080554;28;20464;-63
2024/03/23 11:20:36;;;;;;;5.13;3.00;;;5.90;99.90;;;;;;5080629;28;20461;-64
2024/03/23 11:23:02;;;;;;;4.50;3.17;;;5.70;1.00;;;;;;5080402;28;20898;-64
2024/03/23 11:25:30;;;;;;;4.80;2.73;;;5.80;1.00;;;;;;5079681;28;20457;-67
2024/03/23 11:28:10;;;;;;;5.30;2.53;;;5.90;99.90;;;;;;5079948;28;20469;-66
2024/03/23 11:30:38;;;;;;;5.67;2.80;;;5.90;1.00;;;;;;5080372;28;20471;-64
2024/03/23 11:33:06;;;;;;;6.40;3.00;;;6.00;99.90;;;;;;5080228;28;20431;-63
2024/03/23 11:35:35;;;;;;;4.07;2.50;;;6.10;1.00;;;;;;5080051;28;20439;-64
2024/03/23 11:38:06;;;;;;;6.03;3.03;;;6.40;99.90;;;;;;5079775;28;20833;-65
2024/03/23 11:40:33;;;;;;;7.63;2.77;;;6.50;99.90;;;;;;5078811;28;20461;-64
2024/03/23 11:43:03;;;;;;;5.70;2.77;;;6.50;99.90;;;;;;5079169;28;20879;-64
2024/03/23 11:45:36;;;;;;;4.40;2.37;;;6.50;1.00;;;;;;5079177;28;20493;-63
2024/03/23 11:48:07;;;;;;;8.13;2.70;;;6.60;96.20;;;;;;5078806;28;20512;-64
2024/03/23 11:50:35;;;;;;;6.80;2.77;;;6.60;1.00;;;;;;5079000;28;20440;-66
2024/03/23 11:53:17;;;;;;;7.20;2.90;;;6.70;99.90;;;;;;5079203;28;20457;-64
2024/03/23 11:55:48;;;;;;;4.20;2.20;;;6.70;99.90;;;;;;5079268;28;20515;-63
2024/03/23 11:58:18;;;;;;;4.53;2.63;;;7.10;99.90;;;;;;5079226;28;20477;-63
2024/03/23 12:00:51;;;;;;;8.53;2.70;;;7.90;99.90;;;;;;5078765;28;20859;-62
2024/03/23 12:03:21;;;;;;;4.53;3.00;;;8.50;91.00;;;;;;5079421;28;20458;-62
2024/03/23 12:05:50;;;;;;;3.97;2.40;;;8.70;99.90;;;;;;5079161;28;20461;-62
2024/03/23 12:08:19;;;;;;;5.37;3.57;;;8.60;1.00;;;;;;5078144;28;20457;-62
2024/03/23 12:10:49;;;;;;;4.20;2.40;;;9.20;5.80;;;;;;5077269;28;20489;-63
2024/03/23 12:13:19;;;;;;;5.93;2.77;;;9.20;1.00;;;;;;5077868;28;20439;-62
2024/03/23 12:15:46;;;;;;;3.53;2.50;;;9.80;99.90;;;;;;5078180;28;20514;-62
2024/03/23 12:18:14;;;;;;;5.20;3.10;;;10.30;33.30;;;;;;5078218;28;20830;-61
2024/03/23 12:20:41;;;;;;;6.80;2.63;;;10.70;1.00;;;;;;5077803;28;20464;-61
2024/03/23 12:23:11;;;;;;;4.27;3.00;;;10.70;1.00;;;;;;5078832;28;20431;-61
2024/03/23 12:25:38;;;;;;;3.33;1.60;;;10.00;1.00;;;;;;5078917;28;20464;-64
2024/03/23 12:28:07;;;;;;;3.33;2.17;;;8.10;1.00;;;;;;5079025;28;20428;-63
2024/03/23 12:30:38;;;;;;;3.60;2.30;;;7.10;99.90;;;;;;5078650;28;20462;-65
2024/03/23 12:33:06;;;;;;;2.97;2.10;;;6.40;1.00;;;;;;5078632;28;20469;-64
2024/03/23 12:35:33;;;;;;;4.97;1.90;;;6.00;99.90;;;;;;5079112;28;20893;-64
2024/03/23 12:38:00;;;;;;;2.30;1.70;;;5.90;99.90;;;;;;5078955;28;20933;-65
2024/03/23 12:40:27;;;;;;;3.70;1.73;;;5.80;99.90;;;;;;5078474;28;20974;-64
2024/03/23 12:42:55;;;;;;;2.57;1.57;;;6.20;99.90;;;;;;5078848;28;20556;-65
2024/03/23 12:45:22;;;;;;;4.20;1.77;;;6.30;75.40;;;;;;5078071;28;20907;-65
2024/03/23 12:47:52;;;;;;;3.40;2.10;;;6.40;71.80;;;;;;5076986;28;20948;-67
2024/03/23 12:50:18;;;;;;;2.87;1.80;;;6.50;93.80;;;;;;5076448;28;20461;-67
2024/03/23 12:52:46;;;;;;;3.73;1.83;;;6.40;29.20;;;;;;5075432;28;20553;-67
2024/03/23 12:55:13;;;;;;;5.00;2.10;;;6.40;39.70;;;;;;5075004;28;20497;-67
2024/03/23 12:57:41;;;;;;;3.87;1.90;;;6.40;99.90;;;;;;5075547;28;20460;-69